Terminal Aerodrome Forecast
Issued by NWS

Home | Current Version | Previous Version | Text Only | Print | Product List | Glossary Off
Versions: 1 2 3 4 5 6 7 8 9 10 11 12 13 14 15 16 17 18

622
FTUS43 KMPX 251045 AAA
TAFAXN
TAF AMD
KAXN 251045Z 2511/2606 31010KT 1SM BR OVC003
     FM251500 36011KT 4SM BR OVC008
     FM251700 36011KT P6SM SCT008 OVC015
     FM251900 36012KT P6SM VCSH OVC020
     FM260000 36014G23KT 3SM -RA BR OVC008=

USA.gov is the U.S. government's official web portal to all federal, state and local government web resources and services.